Weather History for Mount Sterling, KY

Change the Weather History Date:

Sunday, April 27, 2014

  Actual Average Record
Temperature  
Mean Temperature 63 °F -  
Max Temperature 80 °F 70 °F 80 °F (2014)
Min Temperature 46 °F 46 °F 46 °F (2014)
Degree Days  
Heating Degree Days 2    
Growing Degree Days 13 (Base 50)    
Moisture  
Dew Point 46 °F    
Average Humidity 55    
Maximum Humidity 93    
Minimum Humidity 32    
Precipitation  
Precipitation 0.00 in - - ()
Sea Level Pressure  
Sea Level Pressure 29.94 in    
Wind  
Wind Speed 6 mph (ESE)    
Max Wind Speed 10 mph    
Max Gust Speed 18 mph    
Visibility 10 miles    
Events Rain    
Averages and records for this station are not official NWS values.
T = Trace of Precipitation, MM = Missing Value Source: NWS Daily Summary

Daily Weather History Graph

Daily Weather History Graph

Search for Another Location

Airport:

Trip Planner

Search our weather history database for the weather conditions in past years. The results will help you decide how hot, cold, wet, or windy it might be!

Date:

Astronomy

Apr. 27, 2014 Rise Set
Actual Time 6:44 AM EDT 8:23 PM EDT
Civil Twilight 6:16 AM EDT 8:51 PM EDT
Nautical Twilight 5:42 AM EDT 9:25 PM EDT
Astronomical Twilight 5:06 AM EDT 10:01 PM EDT
Moon 5:42 AM EDT (4/27) 6:57 PM EDT (4/27)
Length of Visible Light 14h 34m
Length of Day
13h 38m
Waning Crescent, 3% of the Moon is Illuminated
Apr 27
Waning Crescent
Apr 29
New
May 6
First Quarter
May 14
Full
May 21
Last Quarter

Hourly Weather History & Observations

Time (EDT) Temp. Windchill Dew Point Humidity Pressure Visibility Wind Dir Wind Speed Gust Speed Precip Events Conditions
12:15 AM 53.6 °F - 42.8 °F 67% 29.97 in 10.0 mi WSW 3.5 mph - N/A   Clear
12:35 AM 51.8 °F - 44.6 °F 76% 29.97 in 10.0 mi Calm Calm - N/A   Clear
12:55 AM 51.8 °F - 44.6 °F 76% 29.97 in 10.0 mi WSW 4.6 mph - N/A   Clear
1:15 AM 55.4 °F - 42.8 °F 63% 29.96 in 10.0 mi SW 3.5 mph - N/A   Clear
1:35 AM 50.0 °F - 44.6 °F 82% 29.97 in 10.0 mi SW 4.6 mph - N/A   Clear
1:55 AM 50.0 °F - 44.6 °F 82% 29.96 in 10.0 mi SSW 4.6 mph - N/A   Clear
2:15 AM 48.2 °F - 44.6 °F 87% 29.96 in 10.0 mi SW 5.8 mph - N/A   Clear
2:35 AM 46.4 °F 43.5 °F 44.6 °F 93% 29.96 in 10.0 mi SW 5.8 mph - N/A   Clear
2:55 AM 50.0 °F - 42.8 °F 76% 29.96 in 10.0 mi SW 3.5 mph - N/A   Clear
3:15 AM 51.8 °F - 42.8 °F 71% 29.97 in 10.0 mi ENE 4.6 mph - N/A   Clear
3:35 AM 51.8 °F - 42.8 °F 71% 29.97 in 10.0 mi East 3.5 mph - N/A   Clear
3:55 AM 51.8 °F - 42.8 °F 71% 29.97 in 10.0 mi Calm Calm - N/A   Clear
4:15 AM 51.8 °F - 42.8 °F 71% 29.97 in 10.0 mi East 4.6 mph - N/A   Clear
4:35 AM 50.0 °F - 42.8 °F 76% 29.97 in 10.0 mi ESE 5.8 mph - N/A   Clear
4:55 AM 55.4 °F - 42.8 °F 63% 29.97 in 10.0 mi SE 5.8 mph - N/A   Clear
5:15 AM 53.6 °F - 42.8 °F 67% 29.97 in 10.0 mi SE 6.9 mph - N/A   Clear
5:35 AM 53.6 °F - 42.8 °F 67% 29.97 in 10.0 mi ESE 6.9 mph - N/A   Clear
5:55 AM 53.6 °F - 42.8 °F 67% 29.98 in 10.0 mi ESE 4.6 mph - N/A   Clear
6:15 AM 53.6 °F - 42.8 °F 67% 29.99 in 10.0 mi East 3.5 mph - N/A   Clear
6:35 AM 53.6 °F - 42.8 °F 67% 29.99 in 10.0 mi ESE 8.1 mph - N/A   Clear
6:55 AM 53.6 °F - 42.8 °F 67% 30.00 in 10.0 mi ESE 9.2 mph - N/A   Clear
7:15 AM 53.6 °F - 44.6 °F 72% 30.01 in 10.0 mi East 8.1 mph - N/A   Clear
7:35 AM 53.6 °F - 42.8 °F 67% 30.01 in 10.0 mi East 9.2 mph - N/A   Clear
7:55 AM 53.6 °F - 44.6 °F 72% 30.01 in 10.0 mi East 9.2 mph - N/A   Clear
8:15 AM 53.6 °F - 44.6 °F 72% 30.02 in 10.0 mi East 8.1 mph - N/A   Clear
8:35 AM 53.6 °F - 44.6 °F 72% 30.02 in 10.0 mi ESE 8.1 mph - N/A   Clear
8:55 AM 55.4 °F - 44.6 °F 67% 30.03 in 10.0 mi East 9.2 mph - N/A   Clear
9:15 AM 55.4 °F - 44.6 °F 67% 30.02 in 10.0 mi ESE 8.1 mph - N/A   Clear
9:35 AM 57.2 °F - 44.6 °F 63% 30.02 in 10.0 mi ESE 8.1 mph - N/A   Clear
9:55 AM 59.0 °F - 46.4 °F 63% 30.02 in 10.0 mi ESE 9.2 mph - N/A   Clear
10:15 AM 60.8 °F - 44.6 °F 55% 30.02 in 10.0 mi East 8.1 mph - N/A   Clear
10:35 AM 62.6 °F - 46.4 °F 55% 30.02 in 10.0 mi SE 6.9 mph - N/A   Clear
10:55 AM 64.4 °F - 46.4 °F 52% 30.01 in 10.0 mi ESE 6.9 mph - N/A   Clear
11:15 AM 64.4 °F - 46.4 °F 52% 30.01 in 10.0 mi ESE 8.1 mph - N/A   Clear
11:35 AM 68.0 °F - 46.4 °F 46% 30.00 in 10.0 mi ESE 6.9 mph - N/A   Clear
11:55 AM 68.0 °F - 48.2 °F 49% 29.99 in 10.0 mi East 6.9 mph - N/A   Clear
12:15 PM 69.8 °F - 50.0 °F 49% 29.98 in 10.0 mi ESE 9.2 mph - N/A   Clear
12:35 PM 71.6 °F - 50.0 °F 46% 29.97 in 10.0 mi ESE 6.9 mph - N/A   Clear
1:35 PM 77.0 °F - 50.0 °F 39% 29.94 in 10.0 mi East 6.9 mph - N/A   Clear
1:55 PM 77.0 °F - 48.2 °F 36% 29.93 in 10.0 mi Calm Calm - N/A   Clear
2:15 PM 78.8 °F - 46.4 °F 32% 29.93 in 10.0 mi SE 4.6 mph - N/A   Clear
2:35 PM 78.8 °F - 46.4 °F 32% 29.93 in 10.0 mi ESE 6.9 mph - N/A   Clear
2:55 PM 78.8 °F - 48.2 °F 34% 29.91 in 10.0 mi NE 4.6 mph - N/A   Clear
3:15 PM 78.8 °F - 50.0 °F 36% 29.91 in 10.0 mi ENE 5.8 mph - N/A   Clear
3:55 PM 80.6 °F - 51.8 °F 37% 29.89 in 10.0 mi East 6.9 mph - N/A   Clear
4:15 PM 80.6 °F - 51.8 °F 37% 29.89 in 10.0 mi ENE 6.9 mph - N/A   Clear
4:35 PM 80.6 °F - 50.0 °F 34% 29.88 in 10.0 mi East 5.8 mph - N/A   Clear
4:55 PM 78.8 °F - 48.2 °F 34% 29.88 in 10.0 mi East 8.1 mph - N/A   Clear
5:15 PM 78.8 °F - 50.0 °F 36% 29.87 in 10.0 mi ENE 6.9 mph - N/A   Clear
5:35 PM 78.8 °F - 50.0 °F 36% 29.87 in 10.0 mi NE 5.8 mph - N/A   Clear
6:15 PM 77.0 °F - 50.0 °F 39% 29.86 in 10.0 mi East 6.9 mph - N/A   Clear
6:35 PM 77.0 °F - 50.0 °F 39% 29.85 in 10.0 mi East 8.1 mph - N/A   Clear
6:55 PM 77.0 °F - 48.2 °F 36% 29.85 in 10.0 mi East 8.1 mph - N/A   Clear
7:15 PM 75.2 °F - 48.2 °F 38% 29.86 in 10.0 mi East 9.2 mph - N/A   Clear
7:35 PM 75.2 °F - 48.2 °F 38% 29.87 in 10.0 mi East 6.9 mph - N/A   Clear
7:55 PM 73.4 °F - 46.4 °F 38% 29.87 in 10.0 mi East 6.9 mph - N/A   Clear
8:15 PM 73.4 °F - 46.4 °F 38% 29.86 in 10.0 mi ESE 8.1 mph - N/A   Clear
8:35 PM 73.4 °F - 46.4 °F 38% 29.87 in 10.0 mi ESE 8.1 mph - N/A   Clear
8:55 PM 71.6 °F - 46.4 °F 41% 29.87 in 10.0 mi ESE 8.1 mph - N/A   Clear
9:15 PM 71.6 °F - 46.4 °F 41% 29.88 in 10.0 mi ESE 8.1 mph - N/A   Clear
9:35 PM 71.6 °F - 46.4 °F 41% 29.88 in 10.0 mi ESE 10.4 mph - N/A   Clear
9:55 PM 71.6 °F - 46.4 °F 41% 29.89 in 10.0 mi ESE 9.2 mph - N/A   Clear
10:15 PM 71.6 °F - 46.4 °F 41% 29.89 in 10.0 mi ESE 10.4 mph - N/A   Clear
10:35 PM 71.6 °F - 46.4 °F 41% 29.89 in 10.0 mi ESE 8.1 mph - N/A   Scattered Clouds
10:55 PM 69.8 °F - 46.4 °F 43% 29.89 in 10.0 mi ESE 9.2 mph - N/A Rain Light Rain
11:15 PM 69.8 °F - 46.4 °F 43% 29.89 in 10.0 mi SE 10.4 mph - N/A   Mostly Cloudy
11:35 PM 68.0 °F - 50.0 °F 52% 29.89 in 10.0 mi SE 10.4 mph 18.4 mph N/A Rain Light Rain
11:55 PM 68.0 °F - 51.8 °F 56% 29.88 in 10.0 mi SE 9.2 mph - N/A   Overcast